Raiatea — V7VA3 — position and weather

sailwx.info

Track history (hours):
 
Tides and Currents Weather Stations Pressure Air Temp Water Temp Dewpoint Dewpoint Depression Visibility Wind Speed Wind Dir Waves Ship Positions

Raiatea

Last reported at 2016-Jun-25 01:13 UTC. Time now 2016-Jun-29 09:14 UTC.
Position N 01°16' E 104°12'.

Length 292 m; draft 18.3 m.

Type: Cargo ship. MMSI: 538004070.

Date/timePositionNaut miles runAvg speedWind from/ knotsBaromVisibWave heightAir tempDewpointWater temp
2016-Jun-25 01:13N 01°16' E 104°12'812.3
2016-Jun-25 00:33N 01°15' E 104°03'8 6.8
2016-Jun-24 23:25N 01°16' E 103°56'0 0.1
2016-Jun-24 22:25N 01°16' E 103°56'0 0.0
2016-Jun-24 21:28N 01°16' E 103°56'0 0.0
2016-Jun-24 20:31N 01°16' E 103°56'0 0.1
2016-Jun-24 19:25N 01°16' E 103°56'0 0.0
2016-Jun-24 18:31N 01°16' E 103°56'0 0.2
2016-Jun-24 17:31N 01°16' E 103°56'0 0.1
2016-Jun-24 16:31N 01°16' E 103°56'0 0.0
2016-Jun-24 15:13N 01°16' E 103°56'0 0.0
2016-Jun-24 14:31N 01°16' E 103°56'0 0.1
2016-Jun-24 11:25N 01°17' E 103°56'0 0.1
2016-Jun-24 10:31N 01°17' E 103°56'0 0.0
2016-Jun-24 09:31N 01°17' E 103°56'1 0.9
2016-Jun-24 08:33N 01°16' E 103°56'1 1.0
2016-Jun-24 07:29N 01°15' E 103°57'40 7.8
2016-Jun-24 02:23N 01°18' E 103°17'1011.5
2016-Jun-24 01:33N 01°24' E 103°10'2310.8
2016-Jun-23 23:25N 01°36' E 102°51'20 9.9
2016-Jun-23 21:25N 01°45' E 102°33'8 9.7
2016-Jun-23 20:33N 01°48' E 102°25'5510.4
2016-Jun-23 15:14N 02°17' E 101°38'  
Track history (hours):
 
Tides and Currents Weather Stations Pressure Air Temp Water Temp Dewpoint Dewpoint Depression Visibility Wind Speed Wind Dir Waves Ship Positions

Raiatea

Last reported at 2016-Jun-25 01:13 UTC. Time now 2016-Jun-29 09:14 UTC.
Position N 01°16' E 104°12'.

Length 292 m; draft 18.3 m.

Type: Cargo ship. MMSI: 538004070.

Date/timePositionNaut miles runAvg speedWind from/ knotsBaromVisibWave heightAir tempDewpointWater temp
2016-Jun-25 01:13N 01°16' E 104°12'812.3
2016-Jun-25 00:33N 01°15' E 104°03'8 6.8
2016-Jun-24 23:25N 01°16' E 103°56'0 0.1
2016-Jun-24 22:25N 01°16' E 103°56'0 0.0
2016-Jun-24 21:28N 01°16' E 103°56'0 0.0
2016-Jun-24 20:31N 01°16' E 103°56'0 0.1
2016-Jun-24 19:25N 01°16' E 103°56'0 0.0
2016-Jun-24 18:31N 01°16' E 103°56'0 0.2
2016-Jun-24 17:31N 01°16' E 103°56'0 0.1
2016-Jun-24 16:31N 01°16' E 103°56'0 0.0
2016-Jun-24 15:13N 01°16' E 103°56'0 0.0
2016-Jun-24 14:31N 01°16' E 103°56'0 0.1
2016-Jun-24 11:25N 01°17' E 103°56'0 0.1
2016-Jun-24 10:31N 01°17' E 103°56'0 0.0
2016-Jun-24 09:31N 01°17' E 103°56'1 0.9
2016-Jun-24 08:33N 01°16' E 103°56'1 1.0
2016-Jun-24 07:29N 01°15' E 103°57'40 7.8
2016-Jun-24 02:23N 01°18' E 103°17'1011.5
2016-Jun-24 01:33N 01°24' E 103°10'2310.8
2016-Jun-23 23:25N 01°36' E 102°51'20 9.9
2016-Jun-23 21:25N 01°45' E 102°33'8 9.7
2016-Jun-23 20:33N 01°48' E 102°25'5510.4
2016-Jun-23 15:14N 02°17' E 101°38'  

Dump ship's entire track history